sensor_id;sensor_type;location;lat;lon;timestamp;temperature;humidity
54960;DHT22;40860;51.710;8.736;2022-12-15T00:00:32;-6.30;98.50
54960;DHT22;40860;51.710;8.736;2022-12-15T00:04:52;-6.30;98.50
54960;DHT22;40860;51.710;8.736;2022-12-15T00:09:13;-6.30;98.50
54960;DHT22;40860;51.710;8.736;2022-12-15T00:13:33;-6.40;98.40
54960;DHT22;40860;51.710;8.736;2022-12-15T00:17:55;-6.50;98.50
54960;DHT22;40860;51.710;8.736;2022-12-15T00:22:15;-6.50;98.60
54960;DHT22;40860;51.710;8.736;2022-12-15T00:26:36;-6.50;98.60
54960;DHT22;40860;51.710;8.736;2022-12-15T00:30:57;-6.60;98.40
54960;DHT22;40860;51.710;8.736;2022-12-15T00:35:19;-6.60;98.80
54960;DHT22;40860;51.710;8.736;2022-12-15T00:39:39;-6.60;98.40
54960;DHT22;40860;51.710;8.736;2022-12-15T00:43:43;-6.70;98.70
54960;DHT22;40860;51.710;8.736;2022-12-15T00:47:46;-6.70;98.60
54960;DHT22;40860;51.710;8.736;2022-12-15T00:51:51;-6.80;98.60
54960;DHT22;40860;51.710;8.736;2022-12-15T00:56:11;-6.80;98.60
54960;DHT22;40860;51.710;8.736;2022-12-15T01:00:31;-6.80;98.60
54960;DHT22;40860;51.710;8.736;2022-12-15T01:04:51;-6.80;98.70
54960;DHT22;40860;51.710;8.736;2022-12-15T01:09:13;-6.90;98.60
54960;DHT22;40860;51.710;8.736;2022-12-15T01:13:34;-6.80;98.90
54960;DHT22;40860;51.710;8.736;2022-12-15T01:17:54;-6.80;98.90
54960;DHT22;40860;51.710;8.736;2022-12-15T01:22:15;-6.90;98.50
54960;DHT22;40860;51.710;8.736;2022-12-15T01:26:19;-6.90;98.80
54960;DHT22;40860;51.710;8.736;2022-12-15T01:30:23;-6.90;99.10
54960;DHT22;40860;51.710;8.736;2022-12-15T01:34:27;-6.90;98.90
54960;DHT22;40860;51.710;8.736;2022-12-15T01:38:30;-6.90;98.80
54960;DHT22;40860;51.710;8.736;2022-12-15T01:42:34;-7.00;98.70
54960;DHT22;40860;51.710;8.736;2022-12-15T01:46:38;-7.00;98.70
54960;DHT22;40860;51.710;8.736;2022-12-15T01:50:45;-7.00;98.70
54960;DHT22;40860;51.710;8.736;2022-12-15T01:54:52;-7.10;98.70
54960;DHT22;40860;51.710;8.736;2022-12-15T01:58:59;-7.10;98.70
54960;DHT22;40860;51.710;8.736;2022-12-15T02:03:04;-7.10;98.70
54960;DHT22;40860;51.710;8.736;2022-12-15T02:07:11;-7.10;98.60
54960;DHT22;40860;51.710;8.736;2022-12-15T02:16:00;-7.10;98.80
54960;DHT22;40860;51.710;8.736;2022-12-15T02:20:26;-7.10;98.70
54960;DHT22;40860;51.710;8.736;2022-12-15T02:24:55;-7.20;98.60
54960;DHT22;40860;51.710;8.736;2022-12-15T02:33:42;-7.20;98.60
54960;DHT22;40860;51.710;8.736;2022-12-15T02:37:46;-7.20;98.60
54960;DHT22;40860;51.710;8.736;2022-12-15T02:41:50;-7.30;98.60
54960;DHT22;40860;51.710;8.736;2022-12-15T02:46:01;-7.30;98.60
54960;DHT22;40860;51.710;8.736;2022-12-15T02:50:27;-7.30;98.80
54960;DHT22;40860;51.710;8.736;2022-12-15T02:54:45;-7.30;98.60
54960;DHT22;40860;51.710;8.736;2022-12-15T02:58:59;-7.30;98.60
54960;DHT22;40860;51.710;8.736;2022-12-15T03:03:04;-7.40;98.70
54960;DHT22;40860;51.710;8.736;2022-12-15T03:07:09;-7.40;98.70
54960;DHT22;40860;51.710;8.736;2022-12-15T03:11:12;-7.40;98.80
54960;DHT22;40860;51.710;8.736;2022-12-15T03:15:15;-7.30;98.90
54960;DHT22;40860;51.710;8.736;2022-12-15T03:19:18;-7.40;98.80
54960;DHT22;40860;51.710;8.736;2022-12-15T03:23:22;-7.30;99.00
54960;DHT22;40860;51.710;8.736;2022-12-15T03:27:25;-7.30;99.10
54960;DHT22;40860;51.710;8.736;2022-12-15T03:31:28;-7.20;99.20
54960;DHT22;40860;51.710;8.736;2022-12-15T03:35:31;-7.10;99.20
54960;DHT22;40860;51.710;8.736;2022-12-15T03:39:36;-7.10;99.30
54960;DHT22;40860;51.710;8.736;2022-12-15T03:43:39;-7.10;99.00
54960;DHT22;40860;51.710;8.736;2022-12-15T03:47:42;-7.10;99.10
54960;DHT22;40860;51.710;8.736;2022-12-15T03:51:44;-7.20;99.00
54960;DHT22;40860;51.710;8.736;2022-12-15T03:55:49;-7.30;99.00
54960;DHT22;40860;51.710;8.736;2022-12-15T03:59:52;-7.20;99.30
54960;DHT22;40860;51.710;8.736;2022-12-15T04:03:56;-7.20;99.30
54960;DHT22;40860;51.710;8.736;2022-12-15T04:08:02;-7.10;99.40
54960;DHT22;40860;51.710;8.736;2022-12-15T04:12:08;-7.10;99.30
54960;DHT22;40860;51.710;8.736;2022-12-15T04:16:12;-7.10;99.70
54960;DHT22;40860;51.710;8.736;2022-12-15T04:20:21;-7.10;99.30
54960;DHT22;40860;51.710;8.736;2022-12-15T04:24:24;-7.10;99.30
54960;DHT22;40860;51.710;8.736;2022-12-15T04:28:46;-7.20;99.00
54960;DHT22;40860;51.710;8.736;2022-12-15T04:33:06;-7.20;99.20
54960;DHT22;40860;51.710;8.736;2022-12-15T04:37:31;-7.20;99.10
54960;DHT22;40860;51.710;8.736;2022-12-15T04:41:53;-7.30;98.90
54960;DHT22;40860;51.710;8.736;2022-12-15T04:46:15;-7.30;98.90
54960;DHT22;40860;51.710;8.736;2022-12-15T04:50:36;-7.30;99.00
54960;DHT22;40860;51.710;8.736;2022-12-15T04:54:56;-7.30;98.90
54960;DHT22;40860;51.710;8.736;2022-12-15T04:59:17;-7.30;98.90
54960;DHT22;40860;51.710;8.736;2022-12-15T05:03:39;-7.40;98.80
54960;DHT22;40860;51.710;8.736;2022-12-15T05:07:59;-7.40;98.90
54960;DHT22;40860;51.710;8.736;2022-12-15T05:12:20;-7.40;99.10
54960;DHT22;40860;51.710;8.736;2022-12-15T05:16:41;-7.40;99.30
54960;DHT22;40860;51.710;8.736;2022-12-15T05:21:03;-7.40;99.20
54960;DHT22;40860;51.710;8.736;2022-12-15T05:25:23;-7.40;99.10
54960;DHT22;40860;51.710;8.736;2022-12-15T05:29:44;-7.40;99.10
54960;DHT22;40860;51.710;8.736;2022-12-15T05:34:05;-7.40;99.20
54960;DHT22;40860;51.710;8.736;2022-12-15T05:38:09;-7.40;99.30
54960;DHT22;40860;51.710;8.736;2022-12-15T05:42:12;-7.40;99.40
54960;DHT22;40860;51.710;8.736;2022-12-15T05:46:15;-7.40;99.30
54960;DHT22;40860;51.710;8.736;2022-12-15T05:50:18;-7.40;99.30
54960;DHT22;40860;51.710;8.736;2022-12-15T05:54:22;-7.40;99.30
54960;DHT22;40860;51.710;8.736;2022-12-15T05:58:26;-7.40;99.20
54960;DHT22;40860;51.710;8.736;2022-12-15T06:02:29;-7.40;99.30
54960;DHT22;40860;51.710;8.736;2022-12-15T06:06:32;-7.40;99.40
54960;DHT22;40860;51.710;8.736;2022-12-15T06:10:36;-7.40;99.20
54960;DHT22;40860;51.710;8.736;2022-12-15T06:14:39;-7.40;99.20
54960;DHT22;40860;51.710;8.736;2022-12-15T06:18:44;-7.40;99.30
54960;DHT22;40860;51.710;8.736;2022-12-15T06:22:50;-7.30;99.30
54960;DHT22;40860;51.710;8.736;2022-12-15T06:26:55;-7.40;99.00
54960;DHT22;40860;51.710;8.736;2022-12-15T06:31:01;-7.40;99.00
54960;DHT22;40860;51.710;8.736;2022-12-15T06:35:05;-7.40;99.20
54960;DHT22;40860;51.710;8.736;2022-12-15T06:39:12;-7.30;99.30
54960;DHT22;40860;51.710;8.736;2022-12-15T06:43:17;-7.20;99.60
54960;DHT22;40860;51.710;8.736;2022-12-15T06:47:19;-7.00;99.70
54960;DHT22;40860;51.710;8.736;2022-12-15T06:51:22;-6.90;99.70
54960;DHT22;40860;51.710;8.736;2022-12-15T06:55:25;-6.90;99.50
54960;DHT22;40860;51.710;8.736;2022-12-15T06:59:30;-6.90;99.40
54960;DHT22;40860;51.710;8.736;2022-12-15T07:03:33;-6.90;99.20
54960;DHT22;40860;51.710;8.736;2022-12-15T07:07:37;-7.00;99.20
54960;DHT22;40860;51.710;8.736;2022-12-15T07:11:40;-7.00;99.40
54960;DHT22;40860;51.710;8.736;2022-12-15T07:15:44;-7.00;99.40
54960;DHT22;40860;51.710;8.736;2022-12-15T07:19:50;-6.90;99.40
54960;DHT22;40860;51.710;8.736;2022-12-15T07:23:53;-7.00;99.30
54960;DHT22;40860;51.710;8.736;2022-12-15T07:27:58;-7.00;99.40
54960;DHT22;40860;51.710;8.736;2022-12-15T07:32:03;-7.00;99.50
54960;DHT22;40860;51.710;8.736;2022-12-15T07:36:06;-6.90;99.50
54960;DHT22;40860;51.710;8.736;2022-12-15T07:40:10;-6.90;99.60
54960;DHT22;40860;51.710;8.736;2022-12-15T07:44:13;-6.80;99.70
54960;DHT22;40860;51.710;8.736;2022-12-15T07:48:18;-6.70;99.90
54960;DHT22;40860;51.710;8.736;2022-12-15T07:52:21;-6.60;99.90
54960;DHT22;40860;51.710;8.736;2022-12-15T07:56:24;-6.50;99.90
54960;DHT22;40860;51.710;8.736;2022-12-15T08:00:27;-6.50;99.90
54960;DHT22;40860;51.710;8.736;2022-12-15T08:04:32;-6.40;99.90
54960;DHT22;40860;51.710;8.736;2022-12-15T08:08:35;-6.30;99.90
54960;DHT22;40860;51.710;8.736;2022-12-15T08:12:38;-6.30;99.90
54960;DHT22;40860;51.710;8.736;2022-12-15T08:16:41;-6.20;99.90
54960;DHT22;40860;51.710;8.736;2022-12-15T08:20:45;-6.00;99.90
54960;DHT22;40860;51.710;8.736;2022-12-15T08:24:51;-5.80;99.90
54960;DHT22;40860;51.710;8.736;2022-12-15T08:28:55;-5.60;99.90
54960;DHT22;40860;51.710;8.736;2022-12-15T08:33:17;-5.40;99.90
54960;DHT22;40860;51.710;8.736;2022-12-15T08:37:22;-5.20;99.90
54960;DHT22;40860;51.710;8.736;2022-12-15T08:41:27;-5.10;99.90
54960;DHT22;40860;51.710;8.736;2022-12-15T08:45:30;-4.90;99.90
54960;DHT22;40860;51.710;8.736;2022-12-15T08:49:33;-4.80;99.90
54960;DHT22;40860;51.710;8.736;2022-12-15T08:53:37;-4.60;99.90
54960;DHT22;40860;51.710;8.736;2022-12-15T08:57:40;-4.50;99.90
54960;DHT22;40860;51.710;8.736;2022-12-15T09:01:43;-4.30;99.90
54960;DHT22;40860;51.710;8.736;2022-12-15T09:05:46;-4.20;99.90
54960;DHT22;40860;51.710;8.736;2022-12-15T09:09:52;-4.00;99.90
54960;DHT22;40860;51.710;8.736;2022-12-15T09:13:55;-3.90;99.90
54960;DHT22;40860;51.710;8.736;2022-12-15T09:17:58;-3.70;99.90
54960;DHT22;40860;51.710;8.736;2022-12-15T09:22:01;-3.60;99.90
54960;DHT22;40860;51.710;8.736;2022-12-15T09:26:08;-3.40;99.90
54960;DHT22;40860;51.710;8.736;2022-12-15T09:30:12;-3.00;99.90
54960;DHT22;40860;51.710;8.736;2022-12-15T09:34:15;-2.50;99.70
54960;DHT22;40860;51.710;8.736;2022-12-15T09:38:18;-2.10;99.50
54960;DHT22;40860;51.710;8.736;2022-12-15T09:42:25;-1.70;99.30
54960;DHT22;40860;51.710;8.736;2022-12-15T09:46:40;-1.60;98.50
54960;DHT22;40860;51.710;8.736;2022-12-15T09:50:52;-1.50;98.30
54960;DHT22;40860;51.710;8.736;2022-12-15T09:54:56;-1.30;98.30
54960;DHT22;40860;51.710;8.736;2022-12-15T09:59:07;-1.10;97.90
54960;DHT22;40860;51.710;8.736;2022-12-15T10:03:28;-0.90;97.70
54960;DHT22;40860;51.710;8.736;2022-12-15T10:07:39;-0.70;97.10
54960;DHT22;40860;51.710;8.736;2022-12-15T10:11:47;-0.50;97.20
54960;DHT22;40860;51.710;8.736;2022-12-15T10:15:57;-0.50;96.10
54960;DHT22;40860;51.710;8.736;2022-12-15T10:20:06;-0.60;95.90
54960;DHT22;40860;51.710;8.736;2022-12-15T10:24:17;-0.50;96.40
54960;DHT22;40860;51.710;8.736;2022-12-15T10:28:51;-0.40;96.50
54960;DHT22;40860;51.710;8.736;2022-12-15T10:33:07;-0.30;96.50
54960;DHT22;40860;51.710;8.736;2022-12-15T10:37:16;-0.20;94.70
54960;DHT22;40860;51.710;8.736;2022-12-15T10:41:20;-0.20;93.40
54960;DHT22;40860;51.710;8.736;2022-12-15T10:45:34;-0.10;92.20
54960;DHT22;40860;51.710;8.736;2022-12-15T10:49:38;0.00;91.30
54960;DHT22;40860;51.710;8.736;2022-12-15T10:53:44;0.10;91.30
54960;DHT22;40860;51.710;8.736;2022-12-15T10:57:57;0.20;91.40
54960;DHT22;40860;51.710;8.736;2022-12-15T11:02:26;0.30;90.90
54960;DHT22;40860;51.710;8.736;2022-12-15T11:06:32;0.30;91.50
54960;DHT22;40860;51.710;8.736;2022-12-15T11:10:48;0.40;91.60
54960;DHT22;40860;51.710;8.736;2022-12-15T11:15:43;0.50;91.60
54960;DHT22;40860;51.710;8.736;2022-12-15T11:19:53;0.50;91.60
54960;DHT22;40860;51.710;8.736;2022-12-15T11:24:25;0.50;91.20
54960;DHT22;40860;51.710;8.736;2022-12-15T11:28:35;0.50;91.10
54960;DHT22;40860;51.710;8.736;2022-12-15T11:32:42;0.50;90.90
54960;DHT22;40860;51.710;8.736;2022-12-15T11:37:18;0.60;90.70
54960;DHT22;40860;51.710;8.736;2022-12-15T11:41:33;0.70;90.30
54960;DHT22;40860;51.710;8.736;2022-12-15T11:45:44;0.70;89.50
54960;DHT22;40860;51.710;8.736;2022-12-15T11:50:13;0.70;89.60
54960;DHT22;40860;51.710;8.736;2022-12-15T11:54:22;0.80;88.70
54960;DHT22;40860;51.710;8.736;2022-12-15T11:58:49;0.90;88.30
54960;DHT22;40860;51.710;8.736;2022-12-15T12:03:03;0.90;87.80
54960;DHT22;40860;51.710;8.736;2022-12-15T12:07:17;0.90;87.60
54960;DHT22;40860;51.710;8.736;2022-12-15T12:11:27;1.00;88.60
54960;DHT22;40860;51.710;8.736;2022-12-15T12:15:39;1.00;87.30
54960;DHT22;40860;51.710;8.736;2022-12-15T12:19:48;1.10;86.00
54960;DHT22;40860;51.710;8.736;2022-12-15T12:23:56;1.20;85.20
54960;DHT22;40860;51.710;8.736;2022-12-15T12:28:04;1.10;84.20
54960;DHT22;40860;51.710;8.736;2022-12-15T12:32:14;1.20;85.10
54960;DHT22;40860;51.710;8.736;2022-12-15T12:36:18;1.20;85.10
54960;DHT22;40860;51.710;8.736;2022-12-15T12:40:27;1.30;85.10
54960;DHT22;40860;51.710;8.736;2022-12-15T12:44:34;1.30;85.10
54960;DHT22;40860;51.710;8.736;2022-12-15T12:48:42;1.30;85.60
54960;DHT22;40860;51.710;8.736;2022-12-15T12:52:51;1.40;86.10
54960;DHT22;40860;51.710;8.736;2022-12-15T12:56:55;1.40;86.50
54960;DHT22;40860;51.710;8.736;2022-12-15T13:01:10;1.40;87.10
54960;DHT22;40860;51.710;8.736;2022-12-15T13:05:26;1.50;87.10
54960;DHT22;40860;51.710;8.736;2022-12-15T13:09:38;1.40;86.90
54960;DHT22;40860;51.710;8.736;2022-12-15T13:13:42;1.40;87.60
54960;DHT22;40860;51.710;8.736;2022-12-15T13:17:55;1.40;87.40
54960;DHT22;40860;51.710;8.736;2022-12-15T13:22:01;1.40;87.30
54960;DHT22;40860;51.710;8.736;2022-12-15T13:26:13;1.40;87.60
54960;DHT22;40860;51.710;8.736;2022-12-15T13:30:17;1.50;88.90
54960;DHT22;40860;51.710;8.736;2022-12-15T13:34:22;1.50;89.20
54960;DHT22;40860;51.710;8.736;2022-12-15T13:38:51;1.50;88.80
54960;DHT22;40860;51.710;8.736;2022-12-15T13:42:56;1.50;89.10
54960;DHT22;40860;51.710;8.736;2022-12-15T13:47:08;1.50;88.70
54960;DHT22;40860;51.710;8.736;2022-12-15T13:51:27;1.40;88.50
54960;DHT22;40860;51.710;8.736;2022-12-15T13:55:37;1.40;88.30
54960;DHT22;40860;51.710;8.736;2022-12-15T13:59:43;1.30;89.10
54960;DHT22;40860;51.710;8.736;2022-12-15T14:04:03;1.20;90.00
54960;DHT22;40860;51.710;8.736;2022-12-15T14:08:08;1.10;90.20
54960;DHT22;40860;51.710;8.736;2022-12-15T14:12:13;1.00;90.50
54960;DHT22;40860;51.710;8.736;2022-12-15T14:16:19;0.90;90.70
54960;DHT22;40860;51.710;8.736;2022-12-15T14:20:25;0.90;90.80
54960;DHT22;40860;51.710;8.736;2022-12-15T14:24:30;0.80;90.90
54960;DHT22;40860;51.710;8.736;2022-12-15T14:28:45;0.80;91.10
54960;DHT22;40860;51.710;8.736;2022-12-15T14:32:54;0.80;91.20
54960;DHT22;40860;51.710;8.736;2022-12-15T14:37:00;0.80;91.30
54960;DHT22;40860;51.710;8.736;2022-12-15T14:41:05;0.70;91.50
54960;DHT22;40860;51.710;8.736;2022-12-15T14:45:20;0.70;91.70
54960;DHT22;40860;51.710;8.736;2022-12-15T14:49:27;0.60;91.80
54960;DHT22;40860;51.710;8.736;2022-12-15T14:53:32;0.60;91.90
54960;DHT22;40860;51.710;8.736;2022-12-15T14:57:39;0.50;92.00
54960;DHT22;40860;51.710;8.736;2022-12-15T15:01:51;0.50;92.10
54960;DHT22;40860;51.710;8.736;2022-12-15T15:06:16;0.40;92.30
54960;DHT22;40860;51.710;8.736;2022-12-15T15:10:21;0.20;92.60
54960;DHT22;40860;51.710;8.736;2022-12-15T15:14:27;0.00;92.90
54960;DHT22;40860;51.710;8.736;2022-12-15T15:18:33;-0.10;93.20
54960;DHT22;40860;51.710;8.736;2022-12-15T15:22:38;-0.20;93.70
54960;DHT22;40860;51.710;8.736;2022-12-15T15:26:41;-0.40;93.60
54960;DHT22;40860;51.710;8.736;2022-12-15T15:30:45;-0.50;93.90
54960;DHT22;40860;51.710;8.736;2022-12-15T15:34:51;-0.60;94.10
54960;DHT22;40860;51.710;8.736;2022-12-15T15:38:54;-0.70;94.40
54960;DHT22;40860;51.710;8.736;2022-12-15T15:42:57;-0.90;94.60
54960;DHT22;40860;51.710;8.736;2022-12-15T15:46:59;-0.90;94.80
54960;DHT22;40860;51.710;8.736;2022-12-15T15:51:05;-1.00;94.80
54960;DHT22;40860;51.710;8.736;2022-12-15T15:55:12;-1.10;94.80
54960;DHT22;40860;51.710;8.736;2022-12-15T15:59:17;-1.20;94.90
54960;DHT22;40860;51.710;8.736;2022-12-15T16:03:21;-1.30;95.10
54960;DHT22;40860;51.710;8.736;2022-12-15T16:07:27;-1.50;95.30
54960;DHT22;40860;51.710;8.736;2022-12-15T16:11:30;-1.60;95.50
54960;DHT22;40860;51.710;8.736;2022-12-15T16:15:33;-1.50;95.80
54960;DHT22;40860;51.710;8.736;2022-12-15T16:19:36;-1.60;95.80
54960;DHT22;40860;51.710;8.736;2022-12-15T16:23:43;-1.70;95.70
54960;DHT22;40860;51.710;8.736;2022-12-15T16:27:47;-1.80;95.80
54960;DHT22;40860;51.710;8.736;2022-12-15T16:31:50;-2.00;95.90
54960;DHT22;40860;51.710;8.736;2022-12-15T16:35:53;-2.10;96.20
54960;DHT22;40860;51.710;8.736;2022-12-15T16:39:57;-2.20;96.20
54960;DHT22;40860;51.710;8.736;2022-12-15T16:44:00;-2.30;96.30
54960;DHT22;40860;51.710;8.736;2022-12-15T16:48:03;-2.40;96.60
54960;DHT22;40860;51.710;8.736;2022-12-15T16:52:16;-2.40;96.80
54960;DHT22;40860;51.710;8.736;2022-12-15T16:56:21;-2.50;96.70
54960;DHT22;40860;51.710;8.736;2022-12-15T17:00:26;-2.60;96.90
54960;DHT22;40860;51.710;8.736;2022-12-15T17:04:29;-2.60;96.90
54960;DHT22;40860;51.710;8.736;2022-12-15T17:08:37;-2.70;96.90
54960;DHT22;40860;51.710;8.736;2022-12-15T17:12:42;-2.70;97.20
54960;DHT22;40860;51.710;8.736;2022-12-15T17:16:45;-2.80;97.30
54960;DHT22;40860;51.710;8.736;2022-12-15T17:20:48;-2.90;97.30
54960;DHT22;40860;51.710;8.736;2022-12-15T17:24:51;-3.00;97.50
54960;DHT22;40860;51.710;8.736;2022-12-15T17:28:58;-3.00;97.70
54960;DHT22;40860;51.710;8.736;2022-12-15T17:33:01;-3.00;97.80
54960;DHT22;40860;51.710;8.736;2022-12-15T17:37:08;-3.00;97.80
54960;DHT22;40860;51.710;8.736;2022-12-15T17:41:14;-3.00;98.00
54960;DHT22;40860;51.710;8.736;2022-12-15T17:45:38;-3.00;98.20
54960;DHT22;40860;51.710;8.736;2022-12-15T17:49:41;-3.10;98.10
54960;DHT22;40860;51.710;8.736;2022-12-15T17:53:46;-3.10;98.30
54960;DHT22;40860;51.710;8.736;2022-12-15T17:57:50;-3.10;98.30
54960;DHT22;40860;51.710;8.736;2022-12-15T18:01:55;-3.10;98.30
54960;DHT22;40860;51.710;8.736;2022-12-15T18:05:58;-3.30;98.00
54960;DHT22;40860;51.710;8.736;2022-12-15T18:10:01;-3.30;98.30
54960;DHT22;40860;51.710;8.736;2022-12-15T18:14:09;-3.40;98.60
54960;DHT22;40860;51.710;8.736;2022-12-15T18:18:15;-3.40;98.50
54960;DHT22;40860;51.710;8.736;2022-12-15T18:22:20;-3.50;98.50
54960;DHT22;40860;51.710;8.736;2022-12-15T18:26:24;-3.50;98.90
54960;DHT22;40860;51.710;8.736;2022-12-15T18:30:27;-3.50;99.00
54960;DHT22;40860;51.710;8.736;2022-12-15T18:34:31;-3.60;98.40
54960;DHT22;40860;51.710;8.736;2022-12-15T18:38:34;-3.70;98.90
54960;DHT22;40860;51.710;8.736;2022-12-15T18:42:38;-3.70;99.50
54960;DHT22;40860;51.710;8.736;2022-12-15T18:46:41;-3.70;99.30
54960;DHT22;40860;51.710;8.736;2022-12-15T18:50:51;-3.80;99.10
54960;DHT22;40860;51.710;8.736;2022-12-15T18:54:55;-3.80;99.50
54960;DHT22;40860;51.710;8.736;2022-12-15T18:58:57;-3.80;99.40
54960;DHT22;40860;51.710;8.736;2022-12-15T19:03:00;-3.90;99.30
54960;DHT22;40860;51.710;8.736;2022-12-15T19:07:06;-3.90;99.50
54960;DHT22;40860;51.710;8.736;2022-12-15T19:11:13;-4.00;99.00
54960;DHT22;40860;51.710;8.736;2022-12-15T19:15:20;-4.10;99.20
54960;DHT22;40860;51.710;8.736;2022-12-15T19:19:23;-4.10;99.30
54960;DHT22;40860;51.710;8.736;2022-12-15T19:23:45;-4.20;99.30
54960;DHT22;40860;51.710;8.736;2022-12-15T19:27:48;-4.20;99.40
54960;DHT22;40860;51.710;8.736;2022-12-15T19:31:51;-4.20;99.60
54960;DHT22;40860;51.710;8.736;2022-12-15T19:35:55;-4.20;99.80
54960;DHT22;40860;51.710;8.736;2022-12-15T19:40:00;-4.30;99.60
54960;DHT22;40860;51.710;8.736;2022-12-15T19:44:08;-4.30;99.60
54960;DHT22;40860;51.710;8.736;2022-12-15T19:48:15;-4.30;99.50
54960;DHT22;40860;51.710;8.736;2022-12-15T19:52:25;-4.40;99.50
54960;DHT22;40860;51.710;8.736;2022-12-15T19:56:30;-4.50;99.40
54960;DHT22;40860;51.710;8.736;2022-12-15T20:00:32;-4.50;99.70
54960;DHT22;40860;51.710;8.736;2022-12-15T20:04:35;-4.60;99.70
54960;DHT22;40860;51.710;8.736;2022-12-15T20:08:40;-4.60;99.50
54960;DHT22;40860;51.710;8.736;2022-12-15T20:12:45;-4.70;99.40
54960;DHT22;40860;51.710;8.736;2022-12-15T20:16:49;-4.70;99.70
54960;DHT22;40860;51.710;8.736;2022-12-15T20:20:52;-4.80;99.70
54960;DHT22;40860;51.710;8.736;2022-12-15T20:24:56;-4.90;99.40
54960;DHT22;40860;51.710;8.736;2022-12-15T20:29:00;-4.90;99.50
54960;DHT22;40860;51.710;8.736;2022-12-15T20:33:04;-4.90;99.50
54960;DHT22;40860;51.710;8.736;2022-12-15T20:37:16;-4.90;99.60
54960;DHT22;40860;51.710;8.736;2022-12-15T20:41:21;-5.00;99.80
54960;DHT22;40860;51.710;8.736;2022-12-15T20:45:26;-5.00;99.70
54960;DHT22;40860;51.710;8.736;2022-12-15T20:49:28;-5.00;99.90
54960;DHT22;40860;51.710;8.736;2022-12-15T20:53:31;-5.00;99.90
54960;DHT22;40860;51.710;8.736;2022-12-15T20:57:35;-5.00;99.90
54960;DHT22;40860;51.710;8.736;2022-12-15T21:01:40;-5.00;99.90
54960;DHT22;40860;51.710;8.736;2022-12-15T21:05:44;-5.10;99.90
54960;DHT22;40860;51.710;8.736;2022-12-15T21:09:47;-5.10;99.90
54960;DHT22;40860;51.710;8.736;2022-12-15T21:13:52;-5.10;99.90
54960;DHT22;40860;51.710;8.736;2022-12-15T21:17:56;-5.20;99.80
54960;DHT22;40860;51.710;8.736;2022-12-15T21:22:21;-5.20;99.90
54960;DHT22;40860;51.710;8.736;2022-12-15T21:26:25;-5.20;99.90
54960;DHT22;40860;51.710;8.736;2022-12-15T21:30:28;-5.30;99.90
54960;DHT22;40860;51.710;8.736;2022-12-15T21:34:32;-5.30;99.90
54960;DHT22;40860;51.710;8.736;2022-12-15T21:38:38;-5.30;99.80
54960;DHT22;40860;51.710;8.736;2022-12-15T21:42:42;-5.40;99.70
54960;DHT22;40860;51.710;8.736;2022-12-15T21:46:46;-5.40;99.70
54960;DHT22;40860;51.710;8.736;2022-12-15T21:50:50;-5.40;99.70
54960;DHT22;40860;51.710;8.736;2022-12-15T21:54:53;-5.40;99.70
54960;DHT22;40860;51.710;8.736;2022-12-15T21:58:56;-5.50;99.50
54960;DHT22;40860;51.710;8.736;2022-12-15T22:02:59;-5.60;99.60
54960;DHT22;40860;51.710;8.736;2022-12-15T22:07:05;-5.60;99.80
54960;DHT22;40860;51.710;8.736;2022-12-15T22:11:17;-5.70;99.90
54960;DHT22;40860;51.710;8.736;2022-12-15T22:15:21;-5.70;99.90
54960;DHT22;40860;51.710;8.736;2022-12-15T22:19:24;-5.70;99.90
54960;DHT22;40860;51.710;8.736;2022-12-15T22:23:29;-5.70;99.90
54960;DHT22;40860;51.710;8.736;2022-12-15T22:27:32;-5.70;99.90
54960;DHT22;40860;51.710;8.736;2022-12-15T22:31:35;-5.70;99.90
54960;DHT22;40860;51.710;8.736;2022-12-15T22:35:41;-5.80;99.70
54960;DHT22;40860;51.710;8.736;2022-12-15T22:39:45;-5.80;99.80
54960;DHT22;40860;51.710;8.736;2022-12-15T22:43:51;-5.80;99.90
54960;DHT22;40860;51.710;8.736;2022-12-15T22:47:55;-5.80;99.90
54960;DHT22;40860;51.710;8.736;2022-12-15T22:51:58;-5.90;99.80
54960;DHT22;40860;51.710;8.736;2022-12-15T22:56:05;-5.90;99.70
54960;DHT22;40860;51.710;8.736;2022-12-15T23:00:12;-5.90;99.90
54960;DHT22;40860;51.710;8.736;2022-12-15T23:04:15;-5.90;99.90
54960;DHT22;40860;51.710;8.736;2022-12-15T23:08:18;-5.90;99.80
54960;DHT22;40860;51.710;8.736;2022-12-15T23:12:23;-6.00;99.60
54960;DHT22;40860;51.710;8.736;2022-12-15T23:16:26;-6.10;99.60
54960;DHT22;40860;51.710;8.736;2022-12-15T23:20:29;-6.10;99.80
54960;DHT22;40860;51.710;8.736;2022-12-15T23:24:31;-6.20;99.70
54960;DHT22;40860;51.710;8.736;2022-12-15T23:28:36;-6.20;99.90
54960;DHT22;40860;51.710;8.736;2022-12-15T23:32:39;-6.20;99.90
54960;DHT22;40860;51.710;8.736;2022-12-15T23:36:42;-6.20;99.90
54960;DHT22;40860;51.710;8.736;2022-12-15T23:40:46;-6.20;99.90
54960;DHT22;40860;51.710;8.736;2022-12-15T23:44:54;-6.20;99.70
54960;DHT22;40860;51.710;8.736;2022-12-15T23:48:57;-6.20;99.90
54960;DHT22;40860;51.710;8.736;2022-12-15T23:53:01;-6.20;99.90
54960;DHT22;40860;51.710;8.736;2022-12-15T23:57:04;-6.20;99.90
